Nelsonville, Wisconsin
Current Conditions -  °F | °C
As of 7:15 PM on Saturday 25 Oct 2014 (Local Time) from KSTE Reporting Station
Clear Clear  
Wind Chill: 53°   Ceiling: Unl
Heat Index: 53°   Visibility: 10mi
Dew Point: 28°   Wind: 7mph
Humidity: 39%   Direction: 270°W
Pressure: 29.93"   Gusts: NA
Location:  44.49°N, 89.31°W
Report Text: KSTE 260015Z AUTO 27006KT 10SM CLR 11/M02 A2993 RMK AO2 T01141023
Loading
Personal Weather Stations






























Interactive Weather Map New forecast layout! Learn more

10-Day Weather Forecast

Advertisements
Track Severe Weather on mobile